sensor_id;sensor_type;location;lat;lon;timestamp;temperature;humidity
21495;DHT22;10909;53.590;10.054;2022-11-25T00:01:32;8.80;78.40
21495;DHT22;10909;53.590;10.054;2022-11-25T00:04:02;8.80;78.50
21495;DHT22;10909;53.590;10.054;2022-11-25T00:06:34;8.80;78.60
21495;DHT22;10909;53.590;10.054;2022-11-25T00:09:11;8.80;78.70
21495;DHT22;10909;53.590;10.054;2022-11-25T00:11:39;8.80;78.70
21495;DHT22;10909;53.590;10.054;2022-11-25T00:14:08;8.90;78.70
21495;DHT22;10909;53.590;10.054;2022-11-25T00:16:34;8.90;78.80
21495;DHT22;10909;53.590;10.054;2022-11-25T00:19:02;8.90;78.80
21495;DHT22;10909;53.590;10.054;2022-11-25T00:21:31;8.90;78.80
21495;DHT22;10909;53.590;10.054;2022-11-25T00:24:04;8.90;78.70
21495;DHT22;10909;53.590;10.054;2022-11-25T00:26:33;8.90;78.70
21495;DHT22;10909;53.590;10.054;2022-11-25T00:29:02;9.00;78.80
21495;DHT22;10909;53.590;10.054;2022-11-25T00:31:33;9.00;78.70
21495;DHT22;10909;53.590;10.054;2022-11-25T00:34:00;9.00;78.70
21495;DHT22;10909;53.590;10.054;2022-11-25T00:36:30;9.00;78.70
21495;DHT22;10909;53.590;10.054;2022-11-25T00:39:01;9.00;78.70
21495;DHT22;10909;53.590;10.054;2022-11-25T00:41:28;9.00;78.70
21495;DHT22;10909;53.590;10.054;2022-11-25T00:44:15;9.00;78.70
21495;DHT22;10909;53.590;10.054;2022-11-25T00:47:07;9.00;78.70
21495;DHT22;10909;53.590;10.054;2022-11-25T00:49:35;9.10;78.60
21495;DHT22;10909;53.590;10.054;2022-11-25T00:52:07;9.10;78.70
21495;DHT22;10909;53.590;10.054;2022-11-25T00:54:33;9.00;78.60
21495;DHT22;10909;53.590;10.054;2022-11-25T00:57:00;9.00;78.60
21495;DHT22;10909;53.590;10.054;2022-11-25T00:59:27;9.00;78.60
21495;DHT22;10909;53.590;10.054;2022-11-25T01:01:53;9.10;78.60
21495;DHT22;10909;53.590;10.054;2022-11-25T01:04:19;9.10;78.50
21495;DHT22;10909;53.590;10.054;2022-11-25T01:06:54;9.00;78.40
21495;DHT22;10909;53.590;10.054;2022-11-25T01:09:31;9.00;78.40
21495;DHT22;10909;53.590;10.054;2022-11-25T01:12:13;9.00;78.40
21495;DHT22;10909;53.590;10.054;2022-11-25T01:14:47;9.10;78.40
21495;DHT22;10909;53.590;10.054;2022-11-25T01:17:22;8.90;78.20
21495;DHT22;10909;53.590;10.054;2022-11-25T01:19:51;8.90;78.30
21495;DHT22;10909;53.590;10.054;2022-11-25T01:22:18;9.00;78.30
21495;DHT22;10909;53.590;10.054;2022-11-25T01:24:44;8.90;78.30
21495;DHT22;10909;53.590;10.054;2022-11-25T01:27:10;8.90;78.40
21495;DHT22;10909;53.590;10.054;2022-11-25T01:29:37;8.90;78.30
21495;DHT22;10909;53.590;10.054;2022-11-25T01:32:06;8.90;78.30
21495;DHT22;10909;53.590;10.054;2022-11-25T01:34:31;8.80;78.30
21495;DHT22;10909;53.590;10.054;2022-11-25T01:36:59;8.80;78.40
21495;DHT22;10909;53.590;10.054;2022-11-25T01:39:36;8.80;78.30
21495;DHT22;10909;53.590;10.054;2022-11-25T01:42:04;8.80;78.20
21495;DHT22;10909;53.590;10.054;2022-11-25T01:44:31;8.80;78.20
21495;DHT22;10909;53.590;10.054;2022-11-25T01:47:14;8.80;78.20
21495;DHT22;10909;53.590;10.054;2022-11-25T01:50:10;8.70;78.20
21495;DHT22;10909;53.590;10.054;2022-11-25T01:52:39;8.70;78.10
21495;DHT22;10909;53.590;10.054;2022-11-25T01:55:14;8.70;78.00
21495;DHT22;10909;53.590;10.054;2022-11-25T01:57:57;8.60;78.10
21495;DHT22;10909;53.590;10.054;2022-11-25T02:00:24;8.60;78.10
21495;DHT22;10909;53.590;10.054;2022-11-25T02:02:52;8.60;78.00
21495;DHT22;10909;53.590;10.054;2022-11-25T02:05:25;8.50;78.10
21495;DHT22;10909;53.590;10.054;2022-11-25T02:07:54;8.50;78.20
21495;DHT22;10909;53.590;10.054;2022-11-25T02:10:25;8.50;78.60
21495;DHT22;10909;53.590;10.054;2022-11-25T02:12:52;8.50;78.30
21495;DHT22;10909;53.590;10.054;2022-11-25T02:15:18;8.40;78.30
21495;DHT22;10909;53.590;10.054;2022-11-25T02:17:45;8.40;78.30
21495;DHT22;10909;53.590;10.054;2022-11-25T02:20:21;8.40;78.40
21495;DHT22;10909;53.590;10.054;2022-11-25T02:25:40;8.40;78.60
21495;DHT22;10909;53.590;10.054;2022-11-25T02:28:26;8.40;78.50
21495;DHT22;10909;53.590;10.054;2022-11-25T02:30:52;8.40;78.70
21495;DHT22;10909;53.590;10.054;2022-11-25T02:33:19;8.40;78.60
21495;DHT22;10909;53.590;10.054;2022-11-25T02:36:20;8.40;78.70
21495;DHT22;10909;53.590;10.054;2022-11-25T02:38:58;8.40;78.90
21495;DHT22;10909;53.590;10.054;2022-11-25T02:41:42;8.40;79.30
21495;DHT22;10909;53.590;10.054;2022-11-25T02:44:16;8.40;78.60
21495;DHT22;10909;53.590;10.054;2022-11-25T02:46:48;8.50;78.60
21495;DHT22;10909;53.590;10.054;2022-11-25T02:49:14;8.40;78.60
21495;DHT22;10909;53.590;10.054;2022-11-25T02:51:42;8.40;78.60
21495;DHT22;10909;53.590;10.054;2022-11-25T02:54:17;8.40;78.70
21495;DHT22;10909;53.590;10.054;2022-11-25T02:56:44;8.40;78.70
21495;DHT22;10909;53.590;10.054;2022-11-25T02:59:12;8.40;78.60
21495;DHT22;10909;53.590;10.054;2022-11-25T03:01:38;8.40;78.70
21495;DHT22;10909;53.590;10.054;2022-11-25T03:04:04;8.40;78.70
21495;DHT22;10909;53.590;10.054;2022-11-25T03:06:30;8.40;78.60
21495;DHT22;10909;53.590;10.054;2022-11-25T03:08:57;8.40;78.60
21495;DHT22;10909;53.590;10.054;2022-11-25T03:11:23;8.40;78.60
21495;DHT22;10909;53.590;10.054;2022-11-25T03:14:07;8.40;78.60
21495;DHT22;10909;53.590;10.054;2022-11-25T03:16:33;8.40;78.60
21495;DHT22;10909;53.590;10.054;2022-11-25T03:19:02;8.30;78.50
21495;DHT22;10909;53.590;10.054;2022-11-25T03:21:29;8.30;78.60
21495;DHT22;10909;53.590;10.054;2022-11-25T03:24:01;8.30;78.50
21495;DHT22;10909;53.590;10.054;2022-11-25T03:26:36;8.30;78.60
21495;DHT22;10909;53.590;10.054;2022-11-25T03:29:02;8.30;78.60
21495;DHT22;10909;53.590;10.054;2022-11-25T03:31:30;8.30;78.60
21495;DHT22;10909;53.590;10.054;2022-11-25T03:33:56;8.30;78.50
21495;DHT22;10909;53.590;10.054;2022-11-25T03:36:22;8.30;78.50
21495;DHT22;10909;53.590;10.054;2022-11-25T03:38:49;8.30;78.50
21495;DHT22;10909;53.590;10.054;2022-11-25T03:41:16;8.30;78.50
21495;DHT22;10909;53.590;10.054;2022-11-25T03:43:42;8.30;78.60
21495;DHT22;10909;53.590;10.054;2022-11-25T03:46:08;8.20;78.50
21495;DHT22;10909;53.590;10.054;2022-11-25T03:48:38;8.20;78.60
21495;DHT22;10909;53.590;10.054;2022-11-25T03:51:04;8.20;78.70
21495;DHT22;10909;53.590;10.054;2022-11-25T03:53:30;8.20;78.50
21495;DHT22;10909;53.590;10.054;2022-11-25T03:55:55;8.20;78.50
21495;DHT22;10909;53.590;10.054;2022-11-25T03:58:21;8.20;78.50
21495;DHT22;10909;53.590;10.054;2022-11-25T04:00:47;8.10;79.20
21495;DHT22;10909;53.590;10.054;2022-11-25T04:03:13;8.10;78.50
21495;DHT22;10909;53.590;10.054;2022-11-25T04:05:41;8.10;78.50
21495;DHT22;10909;53.590;10.054;2022-11-25T04:08:07;8.10;78.60
21495;DHT22;10909;53.590;10.054;2022-11-25T04:10:33;8.10;78.70
21495;DHT22;10909;53.590;10.054;2022-11-25T04:12:59;8.10;78.70
21495;DHT22;10909;53.590;10.054;2022-11-25T04:15:24;8.10;78.70
21495;DHT22;10909;53.590;10.054;2022-11-25T04:17:50;8.10;78.70
21495;DHT22;10909;53.590;10.054;2022-11-25T04:20:17;8.10;78.70
21495;DHT22;10909;53.590;10.054;2022-11-25T04:22:44;8.10;78.70
21495;DHT22;10909;53.590;10.054;2022-11-25T04:25:10;8.10;78.70
21495;DHT22;10909;53.590;10.054;2022-11-25T04:27:36;8.10;78.70
21495;DHT22;10909;53.590;10.054;2022-11-25T04:30:04;8.10;78.70
21495;DHT22;10909;53.590;10.054;2022-11-25T04:32:30;8.10;78.70
21495;DHT22;10909;53.590;10.054;2022-11-25T04:34:56;8.10;78.70
21495;DHT22;10909;53.590;10.054;2022-11-25T04:37:22;8.10;78.60
21495;DHT22;10909;53.590;10.054;2022-11-25T04:39:49;8.10;78.60
21495;DHT22;10909;53.590;10.054;2022-11-25T04:42:15;8.00;78.50
21495;DHT22;10909;53.590;10.054;2022-11-25T04:45:02;8.00;78.60
21495;DHT22;10909;53.590;10.054;2022-11-25T04:47:29;8.00;78.60
21495;DHT22;10909;53.590;10.054;2022-11-25T04:49:57;8.00;78.70
21495;DHT22;10909;53.590;10.054;2022-11-25T04:52:23;8.00;78.80
21495;DHT22;10909;53.590;10.054;2022-11-25T04:54:49;8.00;78.80
21495;DHT22;10909;53.590;10.054;2022-11-25T04:57:15;8.00;78.80
21495;DHT22;10909;53.590;10.054;2022-11-25T04:59:42;8.00;78.80
21495;DHT22;10909;53.590;10.054;2022-11-25T05:02:16;8.00;78.80
21495;DHT22;10909;53.590;10.054;2022-11-25T05:04:44;8.00;78.90
21495;DHT22;10909;53.590;10.054;2022-11-25T05:07:10;8.00;78.80
21495;DHT22;10909;53.590;10.054;2022-11-25T05:09:36;8.00;78.80
21495;DHT22;10909;53.590;10.054;2022-11-25T05:12:03;8.00;78.80
21495;DHT22;10909;53.590;10.054;2022-11-25T05:14:31;8.00;78.80
21495;DHT22;10909;53.590;10.054;2022-11-25T05:16:59;8.00;78.80
21495;DHT22;10909;53.590;10.054;2022-11-25T05:19:24;8.00;78.90
21495;DHT22;10909;53.590;10.054;2022-11-25T05:21:50;8.00;78.90
21495;DHT22;10909;53.590;10.054;2022-11-25T05:24:15;8.00;78.90
21495;DHT22;10909;53.590;10.054;2022-11-25T05:26:41;8.00;78.90
21495;DHT22;10909;53.590;10.054;2022-11-25T05:29:08;8.00;78.90
21495;DHT22;10909;53.590;10.054;2022-11-25T05:31:35;8.00;78.90
21495;DHT22;10909;53.590;10.054;2022-11-25T05:34:02;8.00;78.90
21495;DHT22;10909;53.590;10.054;2022-11-25T05:36:28;8.00;78.90
21495;DHT22;10909;53.590;10.054;2022-11-25T05:38:58;8.00;78.90
21495;DHT22;10909;53.590;10.054;2022-11-25T05:41:24;8.00;79.00
21495;DHT22;10909;53.590;10.054;2022-11-25T05:43:51;8.00;79.10
21495;DHT22;10909;53.590;10.054;2022-11-25T05:46:17;8.00;79.10
21495;DHT22;10909;53.590;10.054;2022-11-25T05:48:51;8.10;79.30
21495;DHT22;10909;53.590;10.054;2022-11-25T05:51:18;8.00;79.30
21495;DHT22;10909;53.590;10.054;2022-11-25T05:53:44;8.00;79.40
21495;DHT22;10909;53.590;10.054;2022-11-25T05:56:10;8.10;79.50
21495;DHT22;10909;53.590;10.054;2022-11-25T05:58:35;8.10;79.50
21495;DHT22;10909;53.590;10.054;2022-11-25T06:01:09;8.10;79.60
21495;DHT22;10909;53.590;10.054;2022-11-25T06:03:37;8.20;79.70
21495;DHT22;10909;53.590;10.054;2022-11-25T06:06:05;8.30;79.70
21495;DHT22;10909;53.590;10.054;2022-11-25T06:08:33;8.30;79.70
21495;DHT22;10909;53.590;10.054;2022-11-25T06:10:59;8.40;79.80
21495;DHT22;10909;53.590;10.054;2022-11-25T06:13:30;8.30;79.60
21495;DHT22;10909;53.590;10.054;2022-11-25T06:15:56;8.40;79.50
21495;DHT22;10909;53.590;10.054;2022-11-25T06:18:22;8.40;79.40
21495;DHT22;10909;53.590;10.054;2022-11-25T06:20:56;8.40;79.30
21495;DHT22;10909;53.590;10.054;2022-11-25T06:23:31;8.40;79.20
21495;DHT22;10909;53.590;10.054;2022-11-25T06:26:17;8.40;79.10
21495;DHT22;10909;53.590;10.054;2022-11-25T06:28:44;8.40;79.20
21495;DHT22;10909;53.590;10.054;2022-11-25T06:31:13;8.40;79.10
21495;DHT22;10909;53.590;10.054;2022-11-25T06:34:02;8.40;79.00
21495;DHT22;10909;53.590;10.054;2022-11-25T06:36:30;8.40;79.20
21495;DHT22;10909;53.590;10.054;2022-11-25T06:38:59;8.30;78.90
21495;DHT22;10909;53.590;10.054;2022-11-25T06:41:33;8.30;78.90
21495;DHT22;10909;53.590;10.054;2022-11-25T06:44:01;8.40;79.10
21495;DHT22;10909;53.590;10.054;2022-11-25T06:46:30;8.40;79.00
21495;DHT22;10909;53.590;10.054;2022-11-25T06:49:01;8.30;78.90
21495;DHT22;10909;53.590;10.054;2022-11-25T06:51:35;8.40;78.90
21495;DHT22;10909;53.590;10.054;2022-11-25T06:54:01;8.40;79.10
21495;DHT22;10909;53.590;10.054;2022-11-25T06:56:40;8.40;79.10
21495;DHT22;10909;53.590;10.054;2022-11-25T06:59:09;8.30;79.00
21495;DHT22;10909;53.590;10.054;2022-11-25T07:01:36;8.40;79.10
21495;DHT22;10909;53.590;10.054;2022-11-25T07:04:04;8.30;79.00
21495;DHT22;10909;53.590;10.054;2022-11-25T07:06:31;8.30;79.10
21495;DHT22;10909;53.590;10.054;2022-11-25T07:09:03;8.30;79.10
21495;DHT22;10909;53.590;10.054;2022-11-25T07:11:35;8.30;79.10
21495;DHT22;10909;53.590;10.054;2022-11-25T07:14:28;8.40;80.00
21495;DHT22;10909;53.590;10.054;2022-11-25T07:17:32;8.40;79.40
21495;DHT22;10909;53.590;10.054;2022-11-25T07:19:58;8.40;79.40
21495;DHT22;10909;53.590;10.054;2022-11-25T07:22:41;8.40;79.20
21495;DHT22;10909;53.590;10.054;2022-11-25T07:25:22;8.50;79.40
21495;DHT22;10909;53.590;10.054;2022-11-25T07:27:58;8.40;79.20
21495;DHT22;10909;53.590;10.054;2022-11-25T07:30:44;8.40;79.20
21495;DHT22;10909;53.590;10.054;2022-11-25T07:33:18;8.50;79.40
21495;DHT22;10909;53.590;10.054;2022-11-25T07:35:59;8.50;79.50
21495;DHT22;10909;53.590;10.054;2022-11-25T07:38:35;8.50;79.60
21495;DHT22;10909;53.590;10.054;2022-11-25T07:41:06;8.50;79.50
21495;DHT22;10909;53.590;10.054;2022-11-25T07:43:33;8.60;79.50
21495;DHT22;10909;53.590;10.054;2022-11-25T07:46:18;8.60;79.50
21495;DHT22;10909;53.590;10.054;2022-11-25T07:48:47;8.60;79.60
21495;DHT22;10909;53.590;10.054;2022-11-25T07:51:34;8.70;79.60
21495;DHT22;10909;53.590;10.054;2022-11-25T07:54:07;8.70;79.60
21495;DHT22;10909;53.590;10.054;2022-11-25T07:56:37;8.70;79.50
21495;DHT22;10909;53.590;10.054;2022-11-25T07:59:15;8.70;79.50
21495;DHT22;10909;53.590;10.054;2022-11-25T08:01:42;8.80;79.60
21495;DHT22;10909;53.590;10.054;2022-11-25T08:04:10;8.80;79.50
21495;DHT22;10909;53.590;10.054;2022-11-25T08:06:42;8.80;79.50
21495;DHT22;10909;53.590;10.054;2022-11-25T08:09:28;8.80;79.60
21495;DHT22;10909;53.590;10.054;2022-11-25T08:12:43;8.90;79.70
21495;DHT22;10909;53.590;10.054;2022-11-25T08:18:46;9.00;79.50
21495;DHT22;10909;53.590;10.054;2022-11-25T08:21:17;9.00;79.40
21495;DHT22;10909;53.590;10.054;2022-11-25T08:23:47;9.00;79.30
21495;DHT22;10909;53.590;10.054;2022-11-25T08:26:29;9.10;79.40
21495;DHT22;10909;53.590;10.054;2022-11-25T08:28:58;9.00;79.50
21495;DHT22;10909;53.590;10.054;2022-11-25T08:31:26;9.10;79.50
21495;DHT22;10909;53.590;10.054;2022-11-25T08:33:53;9.10;79.50
21495;DHT22;10909;53.590;10.054;2022-11-25T08:36:22;9.10;79.50
21495;DHT22;10909;53.590;10.054;2022-11-25T08:38:54;9.20;79.60
21495;DHT22;10909;53.590;10.054;2022-11-25T08:41:29;9.20;79.60
21495;DHT22;10909;53.590;10.054;2022-11-25T08:43:58;9.30;79.60
21495;DHT22;10909;53.590;10.054;2022-11-25T08:46:30;9.30;79.50
21495;DHT22;10909;53.590;10.054;2022-11-25T08:48:59;9.30;79.40
21495;DHT22;10909;53.590;10.054;2022-11-25T08:51:27;9.40;79.30
21495;DHT22;10909;53.590;10.054;2022-11-25T08:53:54;9.40;79.30
21495;DHT22;10909;53.590;10.054;2022-11-25T08:56:22;9.40;79.30
21495;DHT22;10909;53.590;10.054;2022-11-25T08:58:49;9.40;79.20
21495;DHT22;10909;53.590;10.054;2022-11-25T09:01:17;9.50;79.20
21495;DHT22;10909;53.590;10.054;2022-11-25T09:03:46;9.50;79.20
21495;DHT22;10909;53.590;10.054;2022-11-25T09:06:13;9.50;79.20
21495;DHT22;10909;53.590;10.054;2022-11-25T09:08:40;9.50;79.20
21495;DHT22;10909;53.590;10.054;2022-11-25T09:11:06;9.50;79.10
21495;DHT22;10909;53.590;10.054;2022-11-25T09:13:32;9.60;79.10
21495;DHT22;10909;53.590;10.054;2022-11-25T09:16:02;9.60;79.00
21495;DHT22;10909;53.590;10.054;2022-11-25T09:18:29;9.60;79.00
21495;DHT22;10909;53.590;10.054;2022-11-25T09:20:56;9.60;78.90
21495;DHT22;10909;53.590;10.054;2022-11-25T09:23:23;9.70;78.90
21495;DHT22;10909;53.590;10.054;2022-11-25T09:25:56;9.70;78.90
21495;DHT22;10909;53.590;10.054;2022-11-25T09:28:24;9.70;78.90
21495;DHT22;10909;53.590;10.054;2022-11-25T09:30:50;9.70;78.80
21495;DHT22;10909;53.590;10.054;2022-11-25T09:33:17;9.70;78.60
21495;DHT22;10909;53.590;10.054;2022-11-25T09:35:43;9.70;78.70
21495;DHT22;10909;53.590;10.054;2022-11-25T09:38:09;9.60;78.50
21495;DHT22;10909;53.590;10.054;2022-11-25T09:52:18;9.60;78.50
21495;DHT22;10909;53.590;10.054;2022-11-25T09:54:56;9.60;78.50
21495;DHT22;10909;53.590;10.054;2022-11-25T09:57:32;9.50;78.40
21495;DHT22;10909;53.590;10.054;2022-11-25T10:00:17;9.60;78.50
21495;DHT22;10909;53.590;10.054;2022-11-25T10:03:07;9.50;78.30
21495;DHT22;10909;53.590;10.054;2022-11-25T10:05:41;9.50;78.50
21495;DHT22;10909;53.590;10.054;2022-11-25T10:08:40;9.50;78.50
21495;DHT22;10909;53.590;10.054;2022-11-25T10:22:31;9.50;78.60
21495;DHT22;10909;53.590;10.054;2022-11-25T10:27:58;9.50;78.50
21495;DHT22;10909;53.590;10.054;2022-11-25T10:33:17;9.40;78.60
21495;DHT22;10909;53.590;10.054;2022-11-25T10:35:51;9.50;79.60
21495;DHT22;10909;53.590;10.054;2022-11-25T10:38:25;9.50;78.90
21495;DHT22;10909;53.590;10.054;2022-11-25T10:41:02;9.50;79.00
21495;DHT22;10909;53.590;10.054;2022-11-25T10:43:28;9.50;80.00
21495;DHT22;10909;53.590;10.054;2022-11-25T10:46:35;9.60;79.30
21495;DHT22;10909;53.590;10.054;2022-11-25T10:49:23;9.70;79.60
21495;DHT22;10909;53.590;10.054;2022-11-25T10:55:15;9.70;79.50
21495;DHT22;10909;53.590;10.054;2022-11-25T11:01:20;9.80;79.40
21495;DHT22;10909;53.590;10.054;2022-11-25T11:04:10;9.80;79.60
21495;DHT22;10909;53.590;10.054;2022-11-25T11:06:52;9.90;79.60
21495;DHT22;10909;53.590;10.054;2022-11-25T11:13:03;10.00;79.40
21495;DHT22;10909;53.590;10.054;2022-11-25T11:18:44;10.00;78.80
21495;DHT22;10909;53.590;10.054;2022-11-25T11:21:45;10.00;78.90
21495;DHT22;10909;53.590;10.054;2022-11-25T12:03:32;10.20;79.20
21495;DHT22;10909;53.590;10.054;2022-11-25T12:06:24;10.20;79.20
21495;DHT22;10909;53.590;10.054;2022-11-25T12:09:35;10.20;79.30
21495;DHT22;10909;53.590;10.054;2022-11-25T12:39:03;10.40;79.30
21495;DHT22;10909;53.590;10.054;2022-11-25T12:53:46;10.50;79.40
21495;DHT22;10909;53.590;10.054;2022-11-25T12:56:33;10.50;79.40
21495;DHT22;10909;53.590;10.054;2022-11-25T13:11:17;10.60;79.70
21495;DHT22;10909;53.590;10.054;2022-11-25T13:16:34;10.70;79.50
21495;DHT22;10909;53.590;10.054;2022-11-25T13:19:00;10.70;79.40
21495;DHT22;10909;53.590;10.054;2022-11-25T13:21:26;10.70;79.50
21495;DHT22;10909;53.590;10.054;2022-11-25T13:23:55;10.70;79.50
21495;DHT22;10909;53.590;10.054;2022-11-25T13:31:58;10.80;79.70
21495;DHT22;10909;53.590;10.054;2022-11-25T13:34:34;10.90;79.80
21495;DHT22;10909;53.590;10.054;2022-11-25T13:40:20;10.90;79.70
21495;DHT22;10909;53.590;10.054;2022-11-25T13:42:55;10.90;79.70
21495;DHT22;10909;53.590;10.054;2022-11-25T13:45:34;10.90;79.60
21495;DHT22;10909;53.590;10.054;2022-11-25T13:48:14;10.90;79.70
21495;DHT22;10909;53.590;10.054;2022-11-25T13:50:42;11.00;79.80
21495;DHT22;10909;53.590;10.054;2022-11-25T13:53:31;11.00;79.80
21495;DHT22;10909;53.590;10.054;2022-11-25T13:56:32;11.00;80.00
21495;DHT22;10909;53.590;10.054;2022-11-25T14:04:15;11.10;80.00
21495;DHT22;10909;53.590;10.054;2022-11-25T14:20:55;11.30;80.00
21495;DHT22;10909;53.590;10.054;2022-11-25T14:26:32;11.30;79.90
21495;DHT22;10909;53.590;10.054;2022-11-25T14:29:05;11.40;79.80
21495;DHT22;10909;53.590;10.054;2022-11-25T14:31:52;11.40;79.80
21495;DHT22;10909;53.590;10.054;2022-11-25T14:34:31;11.40;79.80
21495;DHT22;10909;53.590;10.054;2022-11-25T14:37:15;11.40;79.80
21495;DHT22;10909;53.590;10.054;2022-11-25T14:39:53;11.40;79.80
21495;DHT22;10909;53.590;10.054;2022-11-25T14:42:26;11.40;79.80
21495;DHT22;10909;53.590;10.054;2022-11-25T14:44:55;11.40;79.80
21495;DHT22;10909;53.590;10.054;2022-11-25T14:47:31;11.40;79.60
21495;DHT22;10909;53.590;10.054;2022-11-25T14:49:57;11.40;79.70
21495;DHT22;10909;53.590;10.054;2022-11-25T14:52:32;11.40;79.60
21495;DHT22;10909;53.590;10.054;2022-11-25T14:55:02;11.40;79.60
21495;DHT22;10909;53.590;10.054;2022-11-25T14:57:36;11.40;79.60
21495;DHT22;10909;53.590;10.054;2022-11-25T15:00:10;11.40;79.70
21495;DHT22;10909;53.590;10.054;2022-11-25T15:02:50;11.40;79.70
21495;DHT22;10909;53.590;10.054;2022-11-25T15:05:20;11.40;79.70
21495;DHT22;10909;53.590;10.054;2022-11-25T15:07:59;11.50;79.70
21495;DHT22;10909;53.590;10.054;2022-11-25T15:10:38;11.50;79.70
21495;DHT22;10909;53.590;10.054;2022-11-25T15:16:29;11.50;80.00
21495;DHT22;10909;53.590;10.054;2022-11-25T15:18:59;11.50;79.60
21495;DHT22;10909;53.590;10.054;2022-11-25T15:21:46;11.50;79.70
21495;DHT22;10909;53.590;10.054;2022-11-25T15:24:24;11.50;79.80
21495;DHT22;10909;53.590;10.054;2022-11-25T15:26:52;11.40;79.70
21495;DHT22;10909;53.590;10.054;2022-11-25T15:29:19;11.50;79.70
21495;DHT22;10909;53.590;10.054;2022-11-25T15:31:46;11.50;79.80
21495;DHT22;10909;53.590;10.054;2022-11-25T15:34:13;11.50;79.70
21495;DHT22;10909;53.590;10.054;2022-11-25T15:36:42;11.40;79.70
21495;DHT22;10909;53.590;10.054;2022-11-25T15:41:52;11.50;79.80
21495;DHT22;10909;53.590;10.054;2022-11-25T15:44:34;11.50;79.90
21495;DHT22;10909;53.590;10.054;2022-11-25T15:49:50;11.50;80.10
21495;DHT22;10909;53.590;10.054;2022-11-25T15:52:19;11.50;80.00
21495;DHT22;10909;53.590;10.054;2022-11-25T15:54:51;11.60;80.00
21495;DHT22;10909;53.590;10.054;2022-11-25T15:57:31;11.60;80.00
21495;DHT22;10909;53.590;10.054;2022-11-25T16:05:33;11.60;80.10
21495;DHT22;10909;53.590;10.054;2022-11-25T16:08:27;11.60;80.20
21495;DHT22;10909;53.590;10.054;2022-11-25T16:10:59;11.60;80.10
21495;DHT22;10909;53.590;10.054;2022-11-25T16:13:35;11.60;80.00
21495;DHT22;10909;53.590;10.054;2022-11-25T16:16:14;11.70;80.10
21495;DHT22;10909;53.590;10.054;2022-11-25T16:21:20;11.70;80.10
21495;DHT22;10909;53.590;10.054;2022-11-25T16:23:53;11.70;80.10
21495;DHT22;10909;53.590;10.054;2022-11-25T16:26:31;11.70;80.10
21495;DHT22;10909;53.590;10.054;2022-11-25T16:28:59;11.70;80.10
21495;DHT22;10909;53.590;10.054;2022-11-25T16:31:26;11.80;80.10
21495;DHT22;10909;53.590;10.054;2022-11-25T16:33:55;11.70;80.00
21495;DHT22;10909;53.590;10.054;2022-11-25T16:36:23;11.70;80.00
21495;DHT22;10909;53.590;10.054;2022-11-25T16:38:52;11.70;80.00
21495;DHT22;10909;53.590;10.054;2022-11-25T16:41:24;11.70;80.10
21495;DHT22;10909;53.590;10.054;2022-11-25T16:43:53;11.70;80.10
21495;DHT22;10909;53.590;10.054;2022-11-25T16:46:19;11.80;80.20
21495;DHT22;10909;53.590;10.054;2022-11-25T16:48:45;11.80;80.20
21495;DHT22;10909;53.590;10.054;2022-11-25T16:51:16;11.80;80.20
21495;DHT22;10909;53.590;10.054;2022-11-25T16:53:43;11.80;80.20
21495;DHT22;10909;53.590;10.054;2022-11-25T16:56:13;11.80;80.20
21495;DHT22;10909;53.590;10.054;2022-11-25T16:58:41;11.80;80.20
21495;DHT22;10909;53.590;10.054;2022-11-25T17:01:14;11.80;80.30
21495;DHT22;10909;53.590;10.054;2022-11-25T17:03:40;11.80;80.30
21495;DHT22;10909;53.590;10.054;2022-11-25T17:06:19;11.80;80.30
21495;DHT22;10909;53.590;10.054;2022-11-25T17:08:46;11.80;80.40
21495;DHT22;10909;53.590;10.054;2022-11-25T17:11:15;11.90;80.40
21495;DHT22;10909;53.590;10.054;2022-11-25T17:13:44;11.90;80.40
21495;DHT22;10909;53.590;10.054;2022-11-25T17:16:16;11.90;80.40
21495;DHT22;10909;53.590;10.054;2022-11-25T17:18:43;11.90;80.30
21495;DHT22;10909;53.590;10.054;2022-11-25T17:21:16;11.90;80.30
21495;DHT22;10909;53.590;10.054;2022-11-25T17:23:43;11.90;80.40
21495;DHT22;10909;53.590;10.054;2022-11-25T17:26:18;11.90;80.30
21495;DHT22;10909;53.590;10.054;2022-11-25T17:28:58;11.90;80.30
21495;DHT22;10909;53.590;10.054;2022-11-25T17:31:27;12.00;80.40
21495;DHT22;10909;53.590;10.054;2022-11-25T17:33:54;12.00;80.30
21495;DHT22;10909;53.590;10.054;2022-11-25T17:36:21;12.00;80.30
21495;DHT22;10909;53.590;10.054;2022-11-25T17:38:47;12.00;80.30
21495;DHT22;10909;53.590;10.054;2022-11-25T17:41:19;12.00;80.30
21495;DHT22;10909;53.590;10.054;2022-11-25T17:43:48;12.00;80.30
21495;DHT22;10909;53.590;10.054;2022-11-25T17:46:16;12.00;80.20
21495;DHT22;10909;53.590;10.054;2022-11-25T17:48:43;12.00;80.20
21495;DHT22;10909;53.590;10.054;2022-11-25T17:51:10;12.00;80.20
21495;DHT22;10909;53.590;10.054;2022-11-25T17:53:38;12.10;80.30
21495;DHT22;10909;53.590;10.054;2022-11-25T17:56:27;12.00;80.20
21495;DHT22;10909;53.590;10.054;2022-11-25T17:58:59;12.10;80.40
21495;DHT22;10909;53.590;10.054;2022-11-25T18:01:25;12.10;80.20
21495;DHT22;10909;53.590;10.054;2022-11-25T18:03:51;12.10;80.20
21495;DHT22;10909;53.590;10.054;2022-11-25T18:06:19;12.10;80.20
21495;DHT22;10909;53.590;10.054;2022-11-25T18:08:45;12.10;80.20
21495;DHT22;10909;53.590;10.054;2022-11-25T18:11:16;12.10;80.20
21495;DHT22;10909;53.590;10.054;2022-11-25T18:13:44;12.10;80.30
21495;DHT22;10909;53.590;10.054;2022-11-25T18:16:11;12.10;80.20
21495;DHT22;10909;53.590;10.054;2022-11-25T18:18:38;12.10;80.20
21495;DHT22;10909;53.590;10.054;2022-11-25T18:21:04;12.10;80.20
21495;DHT22;10909;53.590;10.054;2022-11-25T18:23:30;12.10;80.20
21495;DHT22;10909;53.590;10.054;2022-11-25T18:25:59;12.00;80.20
21495;DHT22;10909;53.590;10.054;2022-11-25T18:28:28;12.10;80.30
21495;DHT22;10909;53.590;10.054;2022-11-25T18:31:01;12.10;80.30
21495;DHT22;10909;53.590;10.054;2022-11-25T18:33:27;12.10;80.30
21495;DHT22;10909;53.590;10.054;2022-11-25T18:35:53;12.10;80.20
21495;DHT22;10909;53.590;10.054;2022-11-25T18:38:20;12.10;80.20
21495;DHT22;10909;53.590;10.054;2022-11-25T18:40:45;12.00;80.20
21495;DHT22;10909;53.590;10.054;2022-11-25T18:43:19;12.00;80.20
21495;DHT22;10909;53.590;10.054;2022-11-25T18:45:49;12.00;80.30
21495;DHT22;10909;53.590;10.054;2022-11-25T18:48:15;12.00;80.20
21495;DHT22;10909;53.590;10.054;2022-11-25T18:50:43;12.00;80.30
21495;DHT22;10909;53.590;10.054;2022-11-25T18:53:10;12.00;80.30
21495;DHT22;10909;53.590;10.054;2022-11-25T18:55:37;12.00;80.40
21495;DHT22;10909;53.590;10.054;2022-11-25T19:00:40;12.00;80.60
21495;DHT22;10909;53.590;10.054;2022-11-25T19:03:14;12.00;80.50
21495;DHT22;10909;53.590;10.054;2022-11-25T19:05:40;12.00;80.50